sensor_id;sensor_type;location;lat;lon;timestamp;temperature;humidity
19966;DHT22;10144;50.874;4.762;2023-06-14T00:01:06;21.00;93.80
19966;DHT22;10144;50.874;4.762;2023-06-14T00:03:33;20.90;94.00
19966;DHT22;10144;50.874;4.762;2023-06-14T00:06:02;20.80;94.10
19966;DHT22;10144;50.874;4.762;2023-06-14T00:08:30;20.80;94.30
19966;DHT22;10144;50.874;4.762;2023-06-14T00:10:59;20.80;94.70
19966;DHT22;10144;50.874;4.762;2023-06-14T00:13:25;20.90;94.30
19966;DHT22;10144;50.874;4.762;2023-06-14T00:15:51;20.80;94.50
19966;DHT22;10144;50.874;4.762;2023-06-14T00:18:49;20.80;95.00
19966;DHT22;10144;50.874;4.762;2023-06-14T00:21:20;20.90;94.70
19966;DHT22;10144;50.874;4.762;2023-06-14T00:23:49;20.80;95.00
19966;DHT22;10144;50.874;4.762;2023-06-14T00:26:15;20.80;94.90
19966;DHT22;10144;50.874;4.762;2023-06-14T00:28:44;20.80;95.40
19966;DHT22;10144;50.874;4.762;2023-06-14T00:31:13;20.80;95.50
19966;DHT22;10144;50.874;4.762;2023-06-14T00:33:42;20.70;95.50
19966;DHT22;10144;50.874;4.762;2023-06-14T00:36:11;20.50;96.30
19966;DHT22;10144;50.874;4.762;2023-06-14T00:38:50;20.50;96.40
19966;DHT22;10144;50.874;4.762;2023-06-14T00:41:19;20.40;96.80
19966;DHT22;10144;50.874;4.762;2023-06-14T00:44:04;20.40;97.00
19966;DHT22;10144;50.874;4.762;2023-06-14T00:46:32;20.30;97.50
19966;DHT22;10144;50.874;4.762;2023-06-14T00:48:58;20.20;97.80
19966;DHT22;10144;50.874;4.762;2023-06-14T00:51:29;20.10;98.20
19966;DHT22;10144;50.874;4.762;2023-06-14T00:53:57;20.10;99.10
19966;DHT22;10144;50.874;4.762;2023-06-14T00:56:25;20.00;98.60
19966;DHT22;10144;50.874;4.762;2023-06-14T00:58:56;19.90;98.60
19966;DHT22;10144;50.874;4.762;2023-06-14T01:01:24;19.80;99.20
19966;DHT22;10144;50.874;4.762;2023-06-14T01:04:27;19.80;99.50
19966;DHT22;10144;50.874;4.762;2023-06-14T01:07:15;19.90;99.30
19966;DHT22;10144;50.874;4.762;2023-06-14T01:10:04;19.90;99.50
19966;DHT22;10144;50.874;4.762;2023-06-14T01:15:30;20.00;98.80
19966;DHT22;10144;50.874;4.762;2023-06-14T01:18:05;20.00;99.50
19966;DHT22;10144;50.874;4.762;2023-06-14T01:20:37;19.90;99.80
19966;DHT22;10144;50.874;4.762;2023-06-14T01:23:03;19.90;99.90
19966;DHT22;10144;50.874;4.762;2023-06-14T01:25:30;19.80;99.90
19966;DHT22;10144;50.874;4.762;2023-06-14T01:28:00;19.80;99.90
19966;DHT22;10144;50.874;4.762;2023-06-14T01:30:31;19.80;99.90
19966;DHT22;10144;50.874;4.762;2023-06-14T01:33:02;19.70;99.90
19966;DHT22;10144;50.874;4.762;2023-06-14T01:35:31;19.60;99.90
19966;DHT22;10144;50.874;4.762;2023-06-14T01:37:58;19.50;99.90
19966;DHT22;10144;50.874;4.762;2023-06-14T01:40:32;19.40;99.90
19966;DHT22;10144;50.874;4.762;2023-06-14T01:43:02;19.40;99.90
19966;DHT22;10144;50.874;4.762;2023-06-14T01:45:33;19.30;99.90
19966;DHT22;10144;50.874;4.762;2023-06-14T01:48:00;19.20;99.90
19966;DHT22;10144;50.874;4.762;2023-06-14T01:50:30;19.20;99.90
19966;DHT22;10144;50.874;4.762;2023-06-14T01:52:58;19.10;99.90
19966;DHT22;10144;50.874;4.762;2023-06-14T01:55:27;19.00;99.90
19966;DHT22;10144;50.874;4.762;2023-06-14T01:57:56;18.90;99.90
19966;DHT22;10144;50.874;4.762;2023-06-14T02:00:22;18.90;99.90
19966;DHT22;10144;50.874;4.762;2023-06-14T02:02:48;19.00;99.90
19966;DHT22;10144;50.874;4.762;2023-06-14T02:05:17;19.00;99.90
19966;DHT22;10144;50.874;4.762;2023-06-14T02:07:49;18.90;99.90
19966;DHT22;10144;50.874;4.762;2023-06-14T02:10:20;18.90;99.90
19966;DHT22;10144;50.874;4.762;2023-06-14T02:12:47;18.90;99.90
19966;DHT22;10144;50.874;4.762;2023-06-14T02:15:13;18.90;99.90
19966;DHT22;10144;50.874;4.762;2023-06-14T02:17:44;18.70;99.90
19966;DHT22;10144;50.874;4.762;2023-06-14T02:20:16;18.70;99.90
19966;DHT22;10144;50.874;4.762;2023-06-14T02:22:42;18.70;99.90
19966;DHT22;10144;50.874;4.762;2023-06-14T02:25:08;18.70;99.90
19966;DHT22;10144;50.874;4.762;2023-06-14T02:27:37;18.70;99.90
19966;DHT22;10144;50.874;4.762;2023-06-14T02:30:06;18.70;99.90
19966;DHT22;10144;50.874;4.762;2023-06-14T02:32:33;18.70;99.90
19966;DHT22;10144;50.874;4.762;2023-06-14T02:35:01;18.50;99.90
19966;DHT22;10144;50.874;4.762;2023-06-14T02:37:53;18.40;99.90
19966;DHT22;10144;50.874;4.762;2023-06-14T02:40:22;18.30;99.90
19966;DHT22;10144;50.874;4.762;2023-06-14T02:42:54;18.40;99.90
19966;DHT22;10144;50.874;4.762;2023-06-14T02:45:22;18.40;99.90
19966;DHT22;10144;50.874;4.762;2023-06-14T02:47:53;18.30;99.90
19966;DHT22;10144;50.874;4.762;2023-06-14T02:50:21;18.30;99.90
19966;DHT22;10144;50.874;4.762;2023-06-14T02:52:52;18.20;99.90
19966;DHT22;10144;50.874;4.762;2023-06-14T02:55:18;18.10;99.90
19966;DHT22;10144;50.874;4.762;2023-06-14T02:57:48;18.10;99.90
19966;DHT22;10144;50.874;4.762;2023-06-14T03:00:17;17.90;99.90
19966;DHT22;10144;50.874;4.762;2023-06-14T03:02:43;17.90;99.90
19966;DHT22;10144;50.874;4.762;2023-06-14T03:05:12;17.80;99.90
19966;DHT22;10144;50.874;4.762;2023-06-14T03:07:41;17.80;99.90
19966;DHT22;10144;50.874;4.762;2023-06-14T03:10:11;17.80;99.90
19966;DHT22;10144;50.874;4.762;2023-06-14T03:12:39;17.80;99.90
19966;DHT22;10144;50.874;4.762;2023-06-14T03:15:08;17.80;99.90
19966;DHT22;10144;50.874;4.762;2023-06-14T03:17:37;17.70;99.90
19966;DHT22;10144;50.874;4.762;2023-06-14T03:20:10;17.80;99.90
19966;DHT22;10144;50.874;4.762;2023-06-14T03:22:37;17.80;99.90
19966;DHT22;10144;50.874;4.762;2023-06-14T03:25:08;17.70;99.90
19966;DHT22;10144;50.874;4.762;2023-06-14T03:27:49;17.70;99.90
19966;DHT22;10144;50.874;4.762;2023-06-14T03:30:22;17.80;99.90
19966;DHT22;10144;50.874;4.762;2023-06-14T03:32:50;17.80;99.90
19966;DHT22;10144;50.874;4.762;2023-06-14T03:35:22;17.70;99.90
19966;DHT22;10144;50.874;4.762;2023-06-14T03:37:48;17.60;99.90
19966;DHT22;10144;50.874;4.762;2023-06-14T03:40:18;17.70;99.90
19966;DHT22;10144;50.874;4.762;2023-06-14T03:42:48;17.70;99.90
19966;DHT22;10144;50.874;4.762;2023-06-14T03:45:17;17.60;99.90
19966;DHT22;10144;50.874;4.762;2023-06-14T03:47:46;17.60;99.90
19966;DHT22;10144;50.874;4.762;2023-06-14T03:50:18;17.60;99.90
19966;DHT22;10144;50.874;4.762;2023-06-14T03:52:44;17.50;99.90
19966;DHT22;10144;50.874;4.762;2023-06-14T03:55:13;17.50;99.90
19966;DHT22;10144;50.874;4.762;2023-06-14T03:57:41;17.40;99.90
19966;DHT22;10144;50.874;4.762;2023-06-14T04:00:17;17.40;99.90
19966;DHT22;10144;50.874;4.762;2023-06-14T04:02:51;17.50;99.90
19966;DHT22;10144;50.874;4.762;2023-06-14T04:05:17;17.50;99.90
19966;DHT22;10144;50.874;4.762;2023-06-14T04:07:46;17.50;99.90
19966;DHT22;10144;50.874;4.762;2023-06-14T04:10:15;17.60;99.90
19966;DHT22;10144;50.874;4.762;2023-06-14T04:12:44;17.50;99.90
19966;DHT22;10144;50.874;4.762;2023-06-14T04:15:10;17.50;99.90
19966;DHT22;10144;50.874;4.762;2023-06-14T04:17:48;17.40;99.90
19966;DHT22;10144;50.874;4.762;2023-06-14T04:20:19;17.40;99.90
19966;DHT22;10144;50.874;4.762;2023-06-14T04:22:45;17.40;99.90
19966;DHT22;10144;50.874;4.762;2023-06-14T04:25:11;17.40;99.90
19966;DHT22;10144;50.874;4.762;2023-06-14T04:27:40;17.50;99.90
19966;DHT22;10144;50.874;4.762;2023-06-14T04:30:13;17.70;99.90
19966;DHT22;10144;50.874;4.762;2023-06-14T04:32:41;17.80;99.90
19966;DHT22;10144;50.874;4.762;2023-06-14T04:35:13;17.90;99.90
19966;DHT22;10144;50.874;4.762;2023-06-14T04:37:43;18.10;99.90
19966;DHT22;10144;50.874;4.762;2023-06-14T04:40:13;18.20;99.90
19966;DHT22;10144;50.874;4.762;2023-06-14T04:42:42;18.20;99.90
19966;DHT22;10144;50.874;4.762;2023-06-14T04:45:16;18.30;99.90
19966;DHT22;10144;50.874;4.762;2023-06-14T04:47:45;18.60;99.90
19966;DHT22;10144;50.874;4.762;2023-06-14T04:50:11;18.50;99.90
19966;DHT22;10144;50.874;4.762;2023-06-14T04:52:41;18.60;99.90
19966;DHT22;10144;50.874;4.762;2023-06-14T04:55:09;18.80;99.90
19966;DHT22;10144;50.874;4.762;2023-06-14T04:57:36;19.00;99.90
19966;DHT22;10144;50.874;4.762;2023-06-14T05:00:07;19.20;99.90
19966;DHT22;10144;50.874;4.762;2023-06-14T05:02:46;19.40;99.90
19966;DHT22;10144;50.874;4.762;2023-06-14T05:05:15;19.50;99.90
19966;DHT22;10144;50.874;4.762;2023-06-14T05:07:47;19.70;99.90
19966;DHT22;10144;50.874;4.762;2023-06-14T05:10:19;19.70;99.90
19966;DHT22;10144;50.874;4.762;2023-06-14T05:12:48;19.90;99.90
19966;DHT22;10144;50.874;4.762;2023-06-14T05:15:15;20.20;99.90
19966;DHT22;10144;50.874;4.762;2023-06-14T05:17:41;20.60;99.90
19966;DHT22;10144;50.874;4.762;2023-06-14T05:20:08;21.10;99.90
19966;DHT22;10144;50.874;4.762;2023-06-14T05:22:41;21.50;99.90
19966;DHT22;10144;50.874;4.762;2023-06-14T05:25:12;21.70;99.90
19966;DHT22;10144;50.874;4.762;2023-06-14T05:27:44;22.10;99.90
19966;DHT22;10144;50.874;4.762;2023-06-14T05:30:14;22.20;99.90
19966;DHT22;10144;50.874;4.762;2023-06-14T05:32:43;22.30;99.90
19966;DHT22;10144;50.874;4.762;2023-06-14T05:35:10;22.40;99.90
19966;DHT22;10144;50.874;4.762;2023-06-14T05:37:37;22.30;99.90
19966;DHT22;10144;50.874;4.762;2023-06-14T05:40:08;22.50;99.90
19966;DHT22;10144;50.874;4.762;2023-06-14T05:42:37;22.60;99.90
19966;DHT22;10144;50.874;4.762;2023-06-14T05:45:08;22.70;99.90
19966;DHT22;10144;50.874;4.762;2023-06-14T05:47:37;22.90;99.90
19966;DHT22;10144;50.874;4.762;2023-06-14T05:50:06;23.00;99.90
19966;DHT22;10144;50.874;4.762;2023-06-14T05:52:32;22.90;99.90
19966;DHT22;10144;50.874;4.762;2023-06-14T05:55:01;22.90;99.90
19966;DHT22;10144;50.874;4.762;2023-06-14T05:57:30;22.70;99.90
19966;DHT22;10144;50.874;4.762;2023-06-14T05:59:57;23.00;99.90
19966;DHT22;10144;50.874;4.762;2023-06-14T06:02:25;23.30;99.90
19966;DHT22;10144;50.874;4.762;2023-06-14T06:04:54;23.50;99.90
19966;DHT22;10144;50.874;4.762;2023-06-14T06:07:22;23.90;99.90
19966;DHT22;10144;50.874;4.762;2023-06-14T06:09:56;24.40;99.90
19966;DHT22;10144;50.874;4.762;2023-06-14T06:12:37;24.60;99.90
19966;DHT22;10144;50.874;4.762;2023-06-14T06:15:03;25.00;99.90
19966;DHT22;10144;50.874;4.762;2023-06-14T06:17:38;25.40;99.90
19966;DHT22;10144;50.874;4.762;2023-06-14T06:20:15;25.70;99.90
19966;DHT22;10144;50.874;4.762;2023-06-14T06:22:44;26.00;99.90
19966;DHT22;10144;50.874;4.762;2023-06-14T06:25:13;26.40;99.90
19966;DHT22;10144;50.874;4.762;2023-06-14T06:27:43;26.70;99.90
19966;DHT22;10144;50.874;4.762;2023-06-14T06:30:12;27.10;99.90
19966;DHT22;10144;50.874;4.762;2023-06-14T06:32:41;27.70;99.90
19966;DHT22;10144;50.874;4.762;2023-06-14T06:35:12;28.00;99.90
19966;DHT22;10144;50.874;4.762;2023-06-14T06:37:41;28.40;99.90
19966;DHT22;10144;50.874;4.762;2023-06-14T06:40:08;28.60;99.00
19966;DHT22;10144;50.874;4.762;2023-06-14T06:42:37;28.90;99.90
19966;DHT22;10144;50.874;4.762;2023-06-14T06:45:04;29.10;99.50
19966;DHT22;10144;50.874;4.762;2023-06-14T06:47:32;29.70;99.20
19966;DHT22;10144;50.874;4.762;2023-06-14T06:49:57;30.20;97.30
19966;DHT22;10144;50.874;4.762;2023-06-14T06:52:26;30.20;96.60
19966;DHT22;10144;50.874;4.762;2023-06-14T06:54:52;30.70;96.50
19966;DHT22;10144;50.874;4.762;2023-06-14T06:57:23;30.90;94.70
19966;DHT22;10144;50.874;4.762;2023-06-14T06:59:52;30.90;94.40
19966;DHT22;10144;50.874;4.762;2023-06-14T07:02:18;30.80;93.70
19966;DHT22;10144;50.874;4.762;2023-06-14T07:04:43;30.50;93.10
19966;DHT22;10144;50.874;4.762;2023-06-14T07:07:09;30.10;93.60
19966;DHT22;10144;50.874;4.762;2023-06-14T07:09:35;30.30;95.30
19966;DHT22;10144;50.874;4.762;2023-06-14T07:12:01;30.80;92.90
19966;DHT22;10144;50.874;4.762;2023-06-14T07:14:26;30.50;93.10
19966;DHT22;10144;50.874;4.762;2023-06-14T07:16:53;30.90;92.00
19966;DHT22;10144;50.874;4.762;2023-06-14T07:19:19;30.80;92.80
19966;DHT22;10144;50.874;4.762;2023-06-14T07:21:45;31.20;92.00
19966;DHT22;10144;50.874;4.762;2023-06-14T07:24:10;31.50;92.10
19966;DHT22;10144;50.874;4.762;2023-06-14T07:26:36;32.20;92.50
19966;DHT22;10144;50.874;4.762;2023-06-14T07:29:02;32.70;90.60
19966;DHT22;10144;50.874;4.762;2023-06-14T07:31:27;33.10;88.40
19966;DHT22;10144;50.874;4.762;2023-06-14T07:33:53;33.50;87.80
19966;DHT22;10144;50.874;4.762;2023-06-14T07:36:24;33.60;85.00
19966;DHT22;10144;50.874;4.762;2023-06-14T07:38:50;33.20;85.70
19966;DHT22;10144;50.874;4.762;2023-06-14T07:41:16;33.40;85.00
19966;DHT22;10144;50.874;4.762;2023-06-14T07:43:42;33.50;83.80
19966;DHT22;10144;50.874;4.762;2023-06-14T07:46:07;32.20;84.90
19966;DHT22;10144;50.874;4.762;2023-06-14T07:48:34;32.00;85.70
19966;DHT22;10144;50.874;4.762;2023-06-14T07:51:00;32.30;85.30
19966;DHT22;10144;50.874;4.762;2023-06-14T07:53:26;32.30;88.70
19966;DHT22;10144;50.874;4.762;2023-06-14T07:55:52;32.20;85.30
19966;DHT22;10144;50.874;4.762;2023-06-14T07:58:17;32.50;84.30
19966;DHT22;10144;50.874;4.762;2023-06-14T08:00:43;32.70;86.90
19966;DHT22;10144;50.874;4.762;2023-06-14T08:03:09;33.30;84.90
19966;DHT22;10144;50.874;4.762;2023-06-14T08:05:35;33.30;80.90
19966;DHT22;10144;50.874;4.762;2023-06-14T08:08:00;33.20;84.60
19966;DHT22;10144;50.874;4.762;2023-06-14T08:10:27;33.80;84.40
19966;DHT22;10144;50.874;4.762;2023-06-14T08:12:52;34.20;81.80
19966;DHT22;10144;50.874;4.762;2023-06-14T08:15:18;34.80;82.10
19966;DHT22;10144;50.874;4.762;2023-06-14T08:17:44;35.60;76.70
19966;DHT22;10144;50.874;4.762;2023-06-14T08:20:11;35.20;75.70
19966;DHT22;10144;50.874;4.762;2023-06-14T08:22:37;34.60;80.10
19966;DHT22;10144;50.874;4.762;2023-06-14T08:25:03;35.10;80.90
19966;DHT22;10144;50.874;4.762;2023-06-14T08:27:29;35.50;77.80
19966;DHT22;10144;50.874;4.762;2023-06-14T08:29:55;35.70;77.60
19966;DHT22;10144;50.874;4.762;2023-06-14T08:32:22;35.60;75.50
19966;DHT22;10144;50.874;4.762;2023-06-14T08:34:47;35.90;76.90
19966;DHT22;10144;50.874;4.762;2023-06-14T08:37:13;36.40;76.10
19966;DHT22;10144;50.874;4.762;2023-06-14T08:39:39;36.80;74.20
19966;DHT22;10144;50.874;4.762;2023-06-14T08:42:05;37.50;73.10
19966;DHT22;10144;50.874;4.762;2023-06-14T08:44:33;37.70;71.80
19966;DHT22;10144;50.874;4.762;2023-06-14T08:46:59;37.70;71.20
19966;DHT22;10144;50.874;4.762;2023-06-14T08:49:26;37.50;70.00
19966;DHT22;10144;50.874;4.762;2023-06-14T08:51:58;37.60;68.60
19966;DHT22;10144;50.874;4.762;2023-06-14T08:54:28;37.70;68.80
19966;DHT22;10144;50.874;4.762;2023-06-14T08:57:02;38.40;66.10
19966;DHT22;10144;50.874;4.762;2023-06-14T08:59:28;38.00;64.10
19966;DHT22;10144;50.874;4.762;2023-06-14T09:01:54;36.90;67.20
19966;DHT22;10144;50.874;4.762;2023-06-14T09:04:23;36.30;68.60
19966;DHT22;10144;50.874;4.762;2023-06-14T09:06:51;36.00;67.50
19966;DHT22;10144;50.874;4.762;2023-06-14T09:09:20;33.90;70.60
19966;DHT22;10144;50.874;4.762;2023-06-14T09:11:49;34.40;71.80
19966;DHT22;10144;50.874;4.762;2023-06-14T09:14:15;35.10;69.90
19966;DHT22;10144;50.874;4.762;2023-06-14T09:16:40;35.80;69.10
19966;DHT22;10144;50.874;4.762;2023-06-14T09:19:06;34.50;67.90
19966;DHT22;10144;50.874;4.762;2023-06-14T09:21:34;34.00;70.00
19966;DHT22;10144;50.874;4.762;2023-06-14T09:23:59;32.60;71.60
19966;DHT22;10144;50.874;4.762;2023-06-14T09:26:25;32.80;73.80
19966;DHT22;10144;50.874;4.762;2023-06-14T09:28:53;34.10;71.80
19966;DHT22;10144;50.874;4.762;2023-06-14T09:31:20;35.50;69.80
19966;DHT22;10144;50.874;4.762;2023-06-14T09:33:47;34.60;66.30
19966;DHT22;10144;50.874;4.762;2023-06-14T09:36:24;34.10;68.00
19966;DHT22;10144;50.874;4.762;2023-06-14T09:38:54;34.70;67.50
19966;DHT22;10144;50.874;4.762;2023-06-14T09:41:20;34.30;69.10
19966;DHT22;10144;50.874;4.762;2023-06-14T09:43:46;35.10;68.70
19966;DHT22;10144;50.874;4.762;2023-06-14T09:46:13;35.70;67.80
19966;DHT22;10144;50.874;4.762;2023-06-14T09:48:39;36.00;65.50
19966;DHT22;10144;50.874;4.762;2023-06-14T09:51:10;35.90;65.50
19966;DHT22;10144;50.874;4.762;2023-06-14T09:53:36;34.40;64.10
19966;DHT22;10144;50.874;4.762;2023-06-14T09:56:04;33.80;67.50
19966;DHT22;10144;50.874;4.762;2023-06-14T09:58:31;34.10;63.50
19966;DHT22;10144;50.874;4.762;2023-06-14T10:00:59;34.40;63.30
19966;DHT22;10144;50.874;4.762;2023-06-14T10:03:28;35.20;65.40
19966;DHT22;10144;50.874;4.762;2023-06-14T10:05:55;36.00;64.60
19966;DHT22;10144;50.874;4.762;2023-06-14T10:08:27;36.10;62.20
19966;DHT22;10144;50.874;4.762;2023-06-14T10:10:58;34.60;63.60
19966;DHT22;10144;50.874;4.762;2023-06-14T10:13:28;33.80;64.70
19966;DHT22;10144;50.874;4.762;2023-06-14T10:16:17;33.60;64.40
19966;DHT22;10144;50.874;4.762;2023-06-14T10:19:18;34.30;63.70
19966;DHT22;10144;50.874;4.762;2023-06-14T10:22:09;34.80;63.60
19966;DHT22;10144;50.874;4.762;2023-06-14T10:24:45;34.50;62.60
19966;DHT22;10144;50.874;4.762;2023-06-14T10:27:15;34.00;62.60
19966;DHT22;10144;50.874;4.762;2023-06-14T10:32:29;31.50;65.30
19966;DHT22;10144;50.874;4.762;2023-06-14T10:35:06;32.40;70.00
19966;DHT22;10144;50.874;4.762;2023-06-14T10:37:32;32.50;66.30
19966;DHT22;10144;50.874;4.762;2023-06-14T10:39:58;32.40;68.40
19966;DHT22;10144;50.874;4.762;2023-06-14T10:42:29;32.90;62.90
19966;DHT22;10144;50.874;4.762;2023-06-14T10:44:58;32.90;63.90
19966;DHT22;10144;50.874;4.762;2023-06-14T10:47:36;33.20;63.70
19966;DHT22;10144;50.874;4.762;2023-06-14T10:50:13;33.80;67.20
19966;DHT22;10144;50.874;4.762;2023-06-14T10:52:45;34.50;64.70
19966;DHT22;10144;50.874;4.762;2023-06-14T10:55:15;35.10;63.50
19966;DHT22;10144;50.874;4.762;2023-06-14T10:57:47;35.70;59.60
19966;DHT22;10144;50.874;4.762;2023-06-14T11:00:27;36.40;61.00
19966;DHT22;10144;50.874;4.762;2023-06-14T11:05:58;33.70;60.40
19966;DHT22;10144;50.874;4.762;2023-06-14T11:11:25;33.30;62.50
19966;DHT22;10144;50.874;4.762;2023-06-14T11:13:56;34.00;62.00
19966;DHT22;10144;50.874;4.762;2023-06-14T11:16:26;34.70;61.80
19966;DHT22;10144;50.874;4.762;2023-06-14T11:18:53;34.80;59.50
19966;DHT22;10144;50.874;4.762;2023-06-14T11:21:18;34.50;59.80
19966;DHT22;10144;50.874;4.762;2023-06-14T11:23:53;34.80;60.10
19966;DHT22;10144;50.874;4.762;2023-06-14T11:26:30;34.60;59.10
19966;DHT22;10144;50.874;4.762;2023-06-14T11:28:59;34.10;58.90
19966;DHT22;10144;50.874;4.762;2023-06-14T11:31:26;33.20;60.00
19966;DHT22;10144;50.874;4.762;2023-06-14T11:33:56;31.60;63.70
19966;DHT22;10144;50.874;4.762;2023-06-14T11:36:33;31.10;63.40
19966;DHT22;10144;50.874;4.762;2023-06-14T11:39:03;30.70;67.20
19966;DHT22;10144;50.874;4.762;2023-06-14T11:41:44;30.30;67.50
19966;DHT22;10144;50.874;4.762;2023-06-14T11:44:11;29.90;66.60
19966;DHT22;10144;50.874;4.762;2023-06-14T11:46:37;30.30;68.00
19966;DHT22;10144;50.874;4.762;2023-06-14T11:49:04;30.60;66.50
19966;DHT22;10144;50.874;4.762;2023-06-14T11:51:33;31.50;71.10
19966;DHT22;10144;50.874;4.762;2023-06-14T11:54:00;32.00;66.70
19966;DHT22;10144;50.874;4.762;2023-06-14T11:56:28;32.10;65.70
19966;DHT22;10144;50.874;4.762;2023-06-14T11:58:54;32.60;64.40
19966;DHT22;10144;50.874;4.762;2023-06-14T12:01:22;32.90;63.80
19966;DHT22;10144;50.874;4.762;2023-06-14T12:03:49;32.60;64.20
19966;DHT22;10144;50.874;4.762;2023-06-14T12:06:15;32.20;65.20
19966;DHT22;10144;50.874;4.762;2023-06-14T12:08:43;32.40;64.80
19966;DHT22;10144;50.874;4.762;2023-06-14T12:11:13;32.50;65.20
19966;DHT22;10144;50.874;4.762;2023-06-14T12:13:40;32.60;64.30
19966;DHT22;10144;50.874;4.762;2023-06-14T12:16:11;32.90;61.80
19966;DHT22;10144;50.874;4.762;2023-06-14T12:18:39;32.20;60.50
19966;DHT22;10144;50.874;4.762;2023-06-14T12:21:06;31.40;62.70
19966;DHT22;10144;50.874;4.762;2023-06-14T12:23:48;31.20;65.60
19966;DHT22;10144;50.874;4.762;2023-06-14T12:26:19;31.30;62.20
19966;DHT22;10144;50.874;4.762;2023-06-14T12:28:46;31.00;64.80
19966;DHT22;10144;50.874;4.762;2023-06-14T12:31:12;31.30;64.60
19966;DHT22;10144;50.874;4.762;2023-06-14T12:33:40;31.60;66.70
19966;DHT22;10144;50.874;4.762;2023-06-14T12:36:10;31.90;62.80
19966;DHT22;10144;50.874;4.762;2023-06-14T12:38:36;32.10;65.30
19966;DHT22;10144;50.874;4.762;2023-06-14T12:41:02;32.20;63.40
19966;DHT22;10144;50.874;4.762;2023-06-14T12:43:28;31.80;62.20
19966;DHT22;10144;50.874;4.762;2023-06-14T12:45:54;30.00;64.90
19966;DHT22;10144;50.874;4.762;2023-06-14T12:48:20;30.00;67.00
19966;DHT22;10144;50.874;4.762;2023-06-14T12:50:46;29.50;64.20
19966;DHT22;10144;50.874;4.762;2023-06-14T12:53:11;28.60;66.30
19966;DHT22;10144;50.874;4.762;2023-06-14T12:55:37;28.50;67.50
19966;DHT22;10144;50.874;4.762;2023-06-14T12:58:03;28.50;67.70
19966;DHT22;10144;50.874;4.762;2023-06-14T13:00:28;27.90;66.50
19966;DHT22;10144;50.874;4.762;2023-06-14T13:02:59;28.00;70.40
19966;DHT22;10144;50.874;4.762;2023-06-14T13:05:25;28.30;66.00
19966;DHT22;10144;50.874;4.762;2023-06-14T13:07:50;28.40;67.40
19966;DHT22;10144;50.874;4.762;2023-06-14T13:10:17;28.40;66.90
19966;DHT22;10144;50.874;4.762;2023-06-14T13:12:43;28.30;65.70
19966;DHT22;10144;50.874;4.762;2023-06-14T13:15:09;28.30;67.40
19966;DHT22;10144;50.874;4.762;2023-06-14T13:17:35;27.90;67.10
19966;DHT22;10144;50.874;4.762;2023-06-14T13:20:08;27.50;68.70
19966;DHT22;10144;50.874;4.762;2023-06-14T13:22:34;27.40;71.60
19966;DHT22;10144;50.874;4.762;2023-06-14T13:25:00;27.70;68.90
19966;DHT22;10144;50.874;4.762;2023-06-14T13:27:27;28.00;67.60
19966;DHT22;10144;50.874;4.762;2023-06-14T13:29:54;28.20;65.50
19966;DHT22;10144;50.874;4.762;2023-06-14T13:32:21;28.10;66.90
19966;DHT22;10144;50.874;4.762;2023-06-14T13:34:47;28.30;64.50
19966;DHT22;10144;50.874;4.762;2023-06-14T13:37:12;28.30;66.70
19966;DHT22;10144;50.874;4.762;2023-06-14T13:39:38;28.30;67.70
19966;DHT22;10144;50.874;4.762;2023-06-14T13:42:04;28.20;67.80
19966;DHT22;10144;50.874;4.762;2023-06-14T13:44:30;28.30;65.80
19966;DHT22;10144;50.874;4.762;2023-06-14T13:46:55;28.20;65.80
19966;DHT22;10144;50.874;4.762;2023-06-14T13:49:22;28.10;65.90
19966;DHT22;10144;50.874;4.762;2023-06-14T13:51:47;27.90;67.60
19966;DHT22;10144;50.874;4.762;2023-06-14T13:54:13;27.50;65.40
19966;DHT22;10144;50.874;4.762;2023-06-14T13:56:41;27.50;67.80
19966;DHT22;10144;50.874;4.762;2023-06-14T13:59:07;27.80;65.60
19966;DHT22;10144;50.874;4.762;2023-06-14T14:01:33;28.00;65.40
19966;DHT22;10144;50.874;4.762;2023-06-14T14:03:59;28.10;65.90
19966;DHT22;10144;50.874;4.762;2023-06-14T14:06:26;28.30;65.40
19966;DHT22;10144;50.874;4.762;2023-06-14T14:08:52;28.50;65.20
19966;DHT22;10144;50.874;4.762;2023-06-14T14:11:18;28.40;65.20
19966;DHT22;10144;50.874;4.762;2023-06-14T14:13:44;28.20;65.20
19966;DHT22;10144;50.874;4.762;2023-06-14T14:16:11;28.10;65.80
19966;DHT22;10144;50.874;4.762;2023-06-14T14:18:36;28.00;66.70
19966;DHT22;10144;50.874;4.762;2023-06-14T14:21:03;28.00;66.50
19966;DHT22;10144;50.874;4.762;2023-06-14T14:23:28;28.10;68.00
19966;DHT22;10144;50.874;4.762;2023-06-14T14:25:55;28.30;67.40
19966;DHT22;10144;50.874;4.762;2023-06-14T14:28:24;28.40;66.40
19966;DHT22;10144;50.874;4.762;2023-06-14T14:30:52;28.30;66.30
19966;DHT22;10144;50.874;4.762;2023-06-14T14:33:20;28.10;66.00
19966;DHT22;10144;50.874;4.762;2023-06-14T14:35:47;27.80;67.50
19966;DHT22;10144;50.874;4.762;2023-06-14T14:38:19;27.20;67.20
19966;DHT22;10144;50.874;4.762;2023-06-14T14:40:45;27.10;69.60
19966;DHT22;10144;50.874;4.762;2023-06-14T14:43:11;27.30;68.90
19966;DHT22;10144;50.874;4.762;2023-06-14T14:45:37;27.50;69.20
19966;DHT22;10144;50.874;4.762;2023-06-14T14:48:03;27.70;68.40
19966;DHT22;10144;50.874;4.762;2023-06-14T14:50:28;27.80;68.90
19966;DHT22;10144;50.874;4.762;2023-06-14T14:52:55;28.00;67.70
19966;DHT22;10144;50.874;4.762;2023-06-14T14:55:21;28.00;65.80
19966;DHT22;10144;50.874;4.762;2023-06-14T14:57:48;27.90;66.60
19966;DHT22;10144;50.874;4.762;2023-06-14T15:00:14;27.80;65.70
19966;DHT22;10144;50.874;4.762;2023-06-14T15:02:39;27.60;68.90
19966;DHT22;10144;50.874;4.762;2023-06-14T15:05:05;27.60;67.70
19966;DHT22;10144;50.874;4.762;2023-06-14T15:07:31;27.50;67.30
19966;DHT22;10144;50.874;4.762;2023-06-14T15:09:57;27.30;69.30
19966;DHT22;10144;50.874;4.762;2023-06-14T15:12:23;27.30;66.60
19966;DHT22;10144;50.874;4.762;2023-06-14T15:14:52;27.40;66.90
19966;DHT22;10144;50.874;4.762;2023-06-14T15:17:18;27.40;68.60
19966;DHT22;10144;50.874;4.762;2023-06-14T15:19:45;27.30;68.70
19966;DHT22;10144;50.874;4.762;2023-06-14T15:22:15;27.30;67.90
19966;DHT22;10144;50.874;4.762;2023-06-14T15:24:44;27.50;70.20
19966;DHT22;10144;50.874;4.762;2023-06-14T15:27:14;27.60;70.10
19966;DHT22;10144;50.874;4.762;2023-06-14T15:29:46;27.60;68.90
19966;DHT22;10144;50.874;4.762;2023-06-14T15:32:12;27.50;68.70
19966;DHT22;10144;50.874;4.762;2023-06-14T15:34:38;27.50;70.00
19966;DHT22;10144;50.874;4.762;2023-06-14T15:37:08;27.60;69.80
19966;DHT22;10144;50.874;4.762;2023-06-14T15:39:34;27.40;69.10
19966;DHT22;10144;50.874;4.762;2023-06-14T15:42:00;27.20;68.40
19966;DHT22;10144;50.874;4.762;2023-06-14T15:44:26;27.20;68.50
19966;DHT22;10144;50.874;4.762;2023-06-14T15:46:52;27.30;68.80
19966;DHT22;10144;50.874;4.762;2023-06-14T15:49:17;27.20;69.30
19966;DHT22;10144;50.874;4.762;2023-06-14T15:51:44;27.10;70.40